Time;durP1;ratioP1;P1;durP2;ratioP2;P2;SDS_P1;SDS_P2;PMS_P1;PMS_P2;Temp;Humidity;BMP_temperature;BMP_pressure;BME280_temperature;BME280_humidity;BME280_pressure;Samples;Min_cycle;Max_cycle;Signal;HPM_P1;HPM_P2
2022/09/27 00:02:12;;;;;;;9.93;1.95;;;;;;;9.83;100.00;99450.34;5074862;28;20040;-51
2022/09/27 00:04:40;;;;;;;9.60;1.60;;;;;;;9.81;100.00;99453.06;5074835;28;20127;-51
2022/09/27 00:07:10;;;;;;;9.68;2.10;;;;;;;9.82;100.00;99453.94;5074495;28;20041;-51
2022/09/27 00:09:38;;;;;;;8.95;1.67;;;;;;;9.75;100.00;99458.84;5074743;28;20076;-50
2022/09/27 00:12:06;;;;;;;6.57;1.52;;;;;;;9.73;100.00;99466.00;5074823;28;20158;-50
2022/09/27 00:14:34;;;;;;;7.78;1.70;;;;;;;9.75;100.00;99460.66;5074729;28;20499;-52
2022/09/27 00:17:03;;;;;;;11.18;1.50;;;;;;;9.68;100.00;99478.72;5074010;28;20080;-52
2022/09/27 00:19:31;;;;;;;7.75;1.73;;;;;;;9.66;100.00;99469.28;5072202;28;20044;-49
2022/09/27 00:22:00;;;;;;;5.15;1.20;;;;;;;9.62;100.00;99477.41;5072681;28;20059;-55
2022/09/27 00:24:31;;;;;;;4.75;1.23;;;;;;;9.66;100.00;99478.00;5074602;28;20045;-54
2022/09/27 00:26:59;;;;;;;10.13;1.52;;;;;;;9.60;100.00;99479.34;5074338;28;20048;-52
2022/09/27 00:29:30;;;;;;;5.80;1.48;;;;;;;9.52;100.00;99478.31;5072470;28;20037;-52
2022/09/27 00:31:58;;;;;;;7.82;1.27;;;;;;;9.44;100.00;99482.38;5070617;28;20098;-54
2022/09/27 00:34:26;;;;;;;7.53;1.17;;;;;;;9.50;100.00;99482.84;5071332;28;20072;-55
2022/09/27 00:36:57;;;;;;;7.35;1.10;;;;;;;9.51;100.00;99480.09;5072227;28;20095;-53
2022/09/27 00:39:25;;;;;;;13.25;1.65;;;;;;;9.53;100.00;99483.44;5072009;28;20044;-53
2022/09/27 00:41:55;;;;;;;5.25;1.50;;;;;;;9.52;100.00;99488.81;5071393;28;20468;-51
2022/09/27 00:45:02;;;;;;;5.82;1.30;;;;;;;9.50;100.00;99491.53;5071388;28;20052;-51
2022/09/27 00:47:38;;;;;;;5.88;1.52;;;;;;;9.53;100.00;99490.47;5070058;28;20052;-53
2022/09/27 00:50:21;;;;;;;7.85;1.30;;;;;;;9.46;100.00;99490.13;5071500;28;20087;-50
2022/09/27 00:52:59;;;;;;;8.10;1.40;;;;;;;9.50;100.00;99495.97;5073889;28;20098;-49
2022/09/27 00:55:30;;;;;;;7.13;1.50;;;;;;;9.50;100.00;99495.97;5071374;28;20105;-52
2022/09/27 00:58:00;;;;;;;8.02;1.48;;;;;;;9.52;100.00;99497.50;5071957;28;20045;-52
2022/09/27 01:00:29;;;;;;;7.88;1.40;;;;;;;9.46;100.00;99495.38;5073742;28;20475;-50
2022/09/27 01:02:58;;;;;;;7.13;1.38;;;;;;;9.51;100.00;99490.59;5069295;28;20064;-53
2022/09/27 01:05:29;;;;;;;8.68;1.73;;;;;;;9.54;100.00;99486.88;5070988;28;20087;-54
2022/09/27 01:07:59;;;;;;;7.35;1.83;;;;;;;9.54;100.00;99492.94;5071800;28;20055;-52
2022/09/27 01:10:32;;;;;;;11.38;1.88;;;;;;;9.58;100.00;99496.16;5070645;28;20044;-52
2022/09/27 01:13:12;;;;;;;7.57;1.60;;;;;;;9.61;100.00;99502.00;5071309;28;20045;-52
2022/09/27 01:15:49;;;;;;;10.02;2.00;;;;;;;9.57;100.00;99511.09;5071288;28;20057;-51
2022/09/27 01:18:29;;;;;;;9.50;1.63;;;;;;;9.58;100.00;99520.63;5073100;28;20049;-53
2022/09/27 01:21:37;;;;;;;8.10;1.50;;;;;;;9.48;100.00;99525.78;5073584;28;20079;-52
2022/09/27 01:24:42;;;;;;;6.53;1.10;;;;;;;9.45;100.00;99525.22;5055935;28;20053;-52
2022/09/27 01:27:50;;;;;;;6.47;1.08;;;;;;;9.44;100.00;99524.38;5071844;28;20055;-53
2022/09/27 01:30:22;;;;;;;7.70;1.20;;;;;;;9.45;100.00;99519.97;5059076;28;20061;-52
2022/09/27 01:33:01;;;;;;;5.88;0.90;;;;;;;9.49;100.00;99513.53;5069323;28;20495;-52
2022/09/27 01:35:44;;;;;;;7.15;1.17;;;;;;;9.48;100.00;99517.09;5072640;28;20560;-50
2022/09/27 01:38:21;;;;;;;6.65;1.00;;;;;;;9.49;100.00;99526.63;5072559;28;20499;-50
2022/09/27 01:40:58;;;;;;;5.30;1.23;;;;;;;9.44;100.00;99526.19;5072794;28;20106;-51
2022/09/27 01:43:31;;;;;;;4.30;1.00;;;;;;;9.42;100.00;99522.81;5069912;28;20127;-51
2022/09/27 01:46:06;;;;;;;6.28;0.90;;;;;;;9.37;100.00;99530.25;5069059;28;20507;-52
2022/09/27 01:48:41;;;;;;;2.53;0.60;;;;;;;9.36;100.00;99525.97;5070184;28;20041;-50
2022/09/27 01:51:14;;;;;;;4.53;0.80;;;;;;;9.35;100.00;99525.13;5070170;28;20453;-51
2022/09/27 01:53:46;;;;;;;5.78;0.98;;;;;;;9.31;100.00;99523.69;5071327;28;20654;-52
2022/09/27 01:56:20;;;;;;;4.40;0.82;;;;;;;9.32;100.00;99529.78;5071580;28;20052;-51
2022/09/27 01:58:55;;;;;;;4.20;0.95;;;;;;;9.34;100.00;99523.47;5072593;28;20436;-48
2022/09/27 02:01:28;;;;;;;3.47;0.82;;;;;;;9.26;100.00;99529.31;5068638;28;20047;-51
2022/09/27 02:04:00;;;;;;;6.85;0.93;;;;;;;9.23;100.00;99520.84;5070527;28;20052;-49
2022/09/27 02:06:34;;;;;;;4.65;0.70;;;;;;;9.24;100.00;99523.38;5070725;28;20407;-51
2022/09/27 02:09:07;;;;;;;3.95;0.82;;;;;;;9.22;100.00;99517.41;5070679;28;20048;-50
2022/09/27 02:11:38;;;;;;;5.13;0.80;;;;;;;9.16;100.00;99522.31;5069840;28;20135;-52
2022/09/27 02:14:15;;;;;;;8.02;1.35;;;;;;;9.10;100.00;99505.28;5070297;28;20048;-53
2022/09/27 02:16:50;;;;;;;4.38;0.73;;;;;;;9.09;100.00;99508.84;5072665;28;20089;-52
2022/09/27 02:19:31;;;;;;;5.35;1.02;;;;;;;9.00;100.00;99509.59;5072336;28;20102;-53
2022/09/27 02:22:13;;;;;;;6.13;0.82;;;;;;;8.98;100.00;99506.28;5072411;28;20510;-56
2022/09/27 02:24:47;;;;;;;2.03;0.85;;;;;;;8.91;100.00;99517.22;5072425;28;20045;-54
2022/09/27 02:27:20;;;;;;;4.38;0.95;;;;;;;8.89;100.00;99518.31;5071468;28;20079;-52
2022/09/27 02:29:58;;;;;;;7.00;0.95;;;;;;;8.73;100.00;99514.28;5070222;28;20044;-52
2022/09/27 02:32:28;;;;;;;3.72;0.70;;;;;;;8.75;100.00;99519.41;5071147;28;20053;-53
2022/09/27 02:35:01;;;;;;;0.93;0.50;;;;;;;8.74;100.00;99523.81;5072192;28;20045;-52
2022/09/27 02:37:30;;;;;;;4.20;1.00;;;;;;;8.73;100.00;99523.94;5102676;28;20052;-53
2022/09/27 02:39:59;;;;;;;2.72;0.90;;;;;;;8.70;100.00;99518.91;5069918;28;20095;-51
2022/09/27 02:42:28;;;;;;;3.15;0.65;;;;;;;8.63;100.00;99516.78;5069101;28;20036;-52
2022/09/27 02:44:56;;;;;;;8.43;1.00;;;;;;;8.59;100.00;99511.91;5070333;28;20046;-50
2022/09/27 02:48:03;;;;;;;2.55;0.77;;;;;;;8.61;100.00;99516.06;5068031;28;20056;-52
2022/09/27 02:50:44;;;;;;;2.90;0.63;;;;;;;8.53;100.00;99507.97;5064799;28;20068;-53
2022/09/27 02:53:22;;;;;;;3.03;0.95;;;;;;;8.54;100.00;99498.34;5068256;28;20110;-52
2022/09/27 02:56:01;;;;;;;5.38;0.80;;;;;;;8.58;100.00;99510.25;5069293;28;20048;-53
2022/09/27 02:58:39;;;;;;;4.13;1.00;;;;;;;8.58;100.00;99502.38;5069111;28;20131;-53
2022/09/27 03:01:12;;;;;;;5.78;0.80;;;;;;;8.59;100.00;99506.69;5070929;28;20511;-52
2022/09/27 03:03:47;;;;;;;4.85;1.00;;;;;;;8.60;100.00;99503.94;5071757;28;20037;-49
2022/09/27 03:06:19;;;;;;;8.60;1.30;;;;;;;8.57;100.00;99509.41;5069785;28;20051;-52
2022/09/27 03:08:47;;;;;;;5.45;1.10;;;;;;;8.52;100.00;99501.09;5071271;28;20119;-52
2022/09/27 03:11:15;;;;;;;4.85;0.93;;;;;;;8.50;100.00;99496.91;5075366;28;20049;-49
2022/09/27 03:13:45;;;;;;;4.55;0.90;;;;;;;8.42;100.00;99503.53;5073737;28;20049;-55
2022/09/27 03:16:33;;;;;;;4.43;1.55;;;;;;;8.44;100.00;99511.28;5071822;28;20534;-50
2022/09/27 03:19:03;;;;;;;6.65;1.13;;;;;;;8.36;100.00;99504.00;5072214;28;20098;-52
2022/09/27 03:21:31;;;;;;;6.15;0.90;;;;;;;8.31;100.00;99510.56;5074139;28;20037;-52
2022/09/27 03:23:59;;;;;;;5.30;0.90;;;;;;;8.35;100.00;99506.75;5073037;28;20047;-53
2022/09/27 03:26:27;;;;;;;2.45;1.00;;;;;;;8.26;100.00;99511.75;5075010;28;20491;-53
2022/09/27 03:28:56;;;;;;;2.78;0.90;;;;;;;8.28;100.00;99514.25;5073074;28;20083;-54
2022/09/27 03:31:24;;;;;;;5.35;1.00;;;;;;;8.27;100.00;99516.00;5071111;28;20044;-53
2022/09/27 03:33:52;;;;;;;4.95;1.15;;;;;;;8.29;100.00;99516.75;5073295;28;20044;-51
2022/09/27 03:36:22;;;;;;;4.60;1.00;;;;;;;8.28;100.00;99515.06;5073873;28;20123;-51
2022/09/27 03:38:50;;;;;;;4.85;1.02;;;;;;;8.31;100.00;99511.38;5073708;28;20491;-49
2022/09/27 03:41:18;;;;;;;4.30;1.70;;;;;;;8.32;100.00;99515.69;5072396;28;20062;-50
2022/09/27 03:43:46;;;;;;;6.53;1.00;;;;;;;8.29;100.00;99516.75;5073351;28;20056;-51
2022/09/27 03:46:16;;;;;;;3.03;0.93;;;;;;;8.32;100.00;99520.91;5071162;28;20060;-48
2022/09/27 03:48:45;;;;;;;6.13;1.38;;;;;;;8.34;100.00;99512.94;5074384;28;20050;-51
2022/09/27 03:51:16;;;;;;;5.63;1.13;;;;;;;8.35;100.00;99518.06;5075310;28;20055;-53
2022/09/27 03:53:45;;;;;;;6.78;1.50;;;;;;;8.32;100.00;99527.94;5073128;28;20093;-52
2022/09/27 03:56:14;;;;;;;6.35;1.10;;;;;;;8.29;100.00;99521.16;5072675;28;20048;-51
2022/09/27 03:58:42;;;;;;;9.93;1.25;;;;;;;8.29;100.00;99527.22;5073640;28;20044;-50
2022/09/27 04:01:10;;;;;;;6.57;0.90;;;;;;;8.25;100.00;99527.59;5074991;28;20080;-50
2022/09/27 04:03:38;;;;;;;6.88;1.08;;;;;;;8.21;100.00;99524.34;5072190;28;20048;-50
2022/09/27 04:06:07;;;;;;;5.28;1.10;;;;;;;8.21;100.00;99521.75;5072215;28;20835;-52
2022/09/27 04:08:36;;;;;;;6.13;1.30;;;;;;;8.15;100.00;99529.22;5071335;28;20049;-53
2022/09/27 04:11:06;;;;;;;7.75;1.15;;;;;;;8.17;100.00;99540.44;5074408;28;20048;-53
2022/09/27 04:13:34;;;;;;;7.10;1.40;;;;;;;8.16;100.00;99536.97;5074770;28;20044;-52
2022/09/27 04:16:03;;;;;;;7.95;1.63;;;;;;;8.17;100.00;99535.19;5074642;28;20047;-51
2022/09/27 04:18:31;;;;;;;6.97;1.42;;;;;;;8.14;100.00;99536.25;5074587;28;20055;-55
2022/09/27 04:20:59;;;;;;;4.55;1.60;;;;;;;8.17;100.00;99543.88;5073194;28;20067;-52
2022/09/27 04:23:27;;;;;;;9.48;1.80;;;;;;;8.20;100.00;99548.88;5074422;28;20060;-52
2022/09/27 04:25:57;;;;;;;6.70;1.23;;;;;;;8.22;100.00;99541.75;5073203;28;20048;-53
2022/09/27 04:28:26;;;;;;;6.53;1.35;;;;;;;8.23;100.00;99532.09;5074412;28;20040;-52
2022/09/27 04:30:55;;;;;;;6.18;1.67;;;;;;;8.24;100.00;99534.59;5074383;28;20044;-52
2022/09/27 04:33:24;;;;;;;9.63;2.20;;;;;;;8.34;100.00;99533.91;5074400;28;20056;-52
2022/09/27 04:38:38;;;;;;;10.13;1.50;;;;;;;8.33;100.00;99532.22;5073558;28;20045;-51
2022/09/27 04:41:07;;;;;;;8.65;1.35;;;;;;;8.33;100.00;99530.47;5074029;28;20036;-53
2022/09/27 04:43:37;;;;;;;8.07;1.35;;;;;;;8.36;100.00;99526.78;5072191;28;20127;-50
2022/09/27 04:46:05;;;;;;;7.25;1.40;;;;;;;8.37;100.00;99528.41;5070367;28;20707;-52
2022/09/27 04:48:33;;;;;;;10.00;1.75;;;;;;;8.40;100.00;99525.59;5073946;28;20045;-52
2022/09/27 04:51:02;;;;;;;10.20;1.55;;;;;;;8.42;100.00;99534.16;5073581;28;20044;-51
2022/09/27 04:53:31;;;;;;;8.55;1.90;;;;;;;8.40;100.00;99525.59;5072829;28;20384;-52
2022/09/27 04:56:04;;;;;;;8.98;1.63;;;;;;;8.40;100.00;99523.78;5071138;28;20106;-50
2022/09/27 04:58:34;;;;;;;9.65;1.40;;;;;;;8.32;100.00;99526.16;5070028;28;20057;-52
2022/09/27 05:01:03;;;;;;;6.00;1.33;;;;;;;8.34;100.00;99528.66;5072268;28;20123;-52
2022/09/27 05:03:32;;;;;;;9.00;1.75;;;;;;;8.29;100.00;99542.94;5070908;28;20041;-53
2022/09/27 05:06:00;;;;;;;6.32;1.35;;;;;;;8.31;100.00;99528.91;5071290;28;20094;-52
2022/09/27 05:08:29;;;;;;;7.13;1.50;;;;;;;8.31;100.00;99540.19;5071361;28;20048;-52
2022/09/27 05:10:57;;;;;;;10.55;1.60;;;;;;;8.32;100.00;99541.03;5071145;28;20048;-52
2022/09/27 05:13:25;;;;;;;10.25;1.75;;;;;;;8.23;100.00;99543.41;5070744;28;20112;-50
2022/09/27 05:15:53;;;;;;;10.68;1.70;;;;;;;8.25;100.00;99548.53;5069232;28;20059;-51
2022/09/27 05:18:23;;;;;;;10.65;1.63;;;;;;;8.19;100.00;99547.19;5069636;28;20045;-53
2022/09/27 05:20:52;;;;;;;11.70;1.95;;;;;;;8.21;100.00;99561.03;5072018;28;20434;-51
2022/09/27 05:23:20;;;;;;;6.63;1.65;;;;;;;8.17;100.00;99549.13;5071665;28;20068;-52
2022/09/27 05:25:48;;;;;;;8.07;1.60;;;;;;;8.17;100.00;99556.97;5070876;28;20044;-50
2022/09/27 05:28:16;;;;;;;7.53;1.58;;;;;;;8.12;100.00;99557.31;5070191;28;20044;-51
2022/09/27 05:30:44;;;;;;;7.15;1.48;;;;;;;8.10;100.00;99555.78;5071044;28;20039;-52
2022/09/27 05:33:12;;;;;;;9.23;1.77;;;;;;;8.08;100.00;99553.25;5068652;28;20067;-52
2022/09/27 05:35:43;;;;;;;9.30;1.95;;;;;;;8.09;100.00;99556.72;5073105;28;20446;-52
2022/09/27 05:38:12;;;;;;;10.43;1.50;;;;;;;8.11;100.00;99557.41;5072873;28;20045;-50
2022/09/27 05:40:43;;;;;;;5.93;1.55;;;;;;;8.01;100.00;99559.91;5071132;28;20399;-49
2022/09/27 05:43:11;;;;;;;6.57;1.63;;;;;;;8.05;100.00;99555.28;5070250;28;20131;-52
2022/09/27 05:45:39;;;;;;;5.88;1.02;;;;;;;7.99;100.00;99553.09;5072755;28;20036;-53
2022/09/27 05:48:08;;;;;;;8.10;1.88;;;;;;;7.99;100.00;99556.56;5072783;28;20118;-53
2022/09/27 05:50:36;;;;;;;5.78;1.10;;;;;;;7.97;100.00;99555.03;5072702;28;20037;-53
2022/09/27 05:53:06;;;;;;;6.47;1.45;;;;;;;7.93;100.00;99555.25;5072448;28;20044;-51
2022/09/27 05:55:34;;;;;;;6.85;1.70;;;;;;;7.97;100.00;99562.88;5069383;28;20052;-53
2022/09/27 05:58:05;;;;;;;6.57;1.30;;;;;;;7.92;100.00;99563.19;5069629;28;20147;-53
2022/09/27 06:00:35;;;;;;;6.03;1.30;;;;;;;7.93;100.00;99565.72;5070523;28;20052;-52
2022/09/27 06:03:06;;;;;;;6.50;1.20;;;;;;;7.95;100.00;99569.06;5070445;28;20044;-54
2022/09/27 06:05:36;;;;;;;7.60;2.10;;;;;;;7.99;100.00;99574.06;5070303;28;20127;-54
2022/09/27 06:08:08;;;;;;;6.07;1.33;;;;;;;7.98;100.00;99568.00;5070981;28;20086;-53
2022/09/27 06:10:37;;;;;;;5.63;1.20;;;;;;;7.95;100.00;99571.66;5072386;28;20114;-53
2022/09/27 06:13:07;;;;;;;6.35;1.48;;;;;;;7.92;100.00;99571.91;5072278;28;20055;-52
2022/09/27 06:15:39;;;;;;;6.93;1.77;;;;;;;7.97;100.00;99571.56;5072251;28;20045;-52
2022/09/27 06:18:10;;;;;;;5.18;1.20;;;;;;;7.91;100.00;99575.47;5068343;28;20048;-53
2022/09/27 06:20:39;;;;;;;4.15;1.20;;;;;;;7.97;100.00;99578.59;5071201;28;20041;-52
2022/09/27 06:23:10;;;;;;;7.72;1.40;;;;;;;8.00;100.00;99578.34;5072277;28;20071;-50
2022/09/27 06:25:39;;;;;;;5.82;1.02;;;;;;;7.99;100.00;99581.91;5072629;28;20123;-52
2022/09/27 06:28:07;;;;;;;5.93;1.25;;;;;;;8.03;100.00;99581.59;5072446;28;20071;-52
2022/09/27 06:30:39;;;;;;;6.32;1.10;;;;;;;8.12;100.00;99590.53;5072275;28;20120;-52
2022/09/27 06:33:09;;;;;;;3.97;0.85;;;;;;;8.16;100.00;99588.53;5072391;28;20464;-53
2022/09/27 06:35:37;;;;;;;4.63;1.10;;;;;;;8.16;100.00;99586.72;5071673;28;20036;-52
2022/09/27 06:38:07;;;;;;;5.18;1.63;;;;;;;8.17;100.00;99592.81;5069880;28;20048;-54
2022/09/27 06:40:38;;;;;;;3.25;1.05;;;;;;;8.13;100.00;99590.41;5071568;28;20098;-52
2022/09/27 06:43:08;;;;;;;3.05;1.08;;;;;;;8.22;100.00;99594.13;5072074;28;20044;-53
2022/09/27 06:45:38;;;;;;;4.38;1.13;;;;;;;8.34;100.00;99596.78;5075005;28;20070;-49
2022/09/27 06:48:09;;;;;;;4.40;1.63;;;;;;;8.37;100.00;99589.53;5072065;28;20048;-49
2022/09/27 06:50:38;;;;;;;6.93;1.38;;;;;;;8.39;100.00;99599.88;5072872;28;20090;-52
2022/09/27 06:53:09;;;;;;;6.45;1.23;;;;;;;8.40;100.00;99599.75;5075206;28;20119;-49
2022/09/27 06:55:39;;;;;;;1.88;0.90;;;;;;;8.45;100.00;99599.44;5076297;28;20041;-51
2022/09/27 07:00:55;;;;;;;5.07;1.05;;;;;;;8.62;100.00;99606.03;5072337;28;20040;-52
2022/09/27 07:03:31;;;;;;;4.90;1.75;;;;;;;8.80;100.00;99609.00;5071187;28;20068;-53
2022/09/27 07:06:06;;;;;;;3.35;1.15;;;;;;;8.87;100.00;99606.75;5075819;28;20044;-51
2022/09/27 07:08:34;;;;;;;5.40;1.15;;;;;;;9.01;100.00;99611.72;5074996;28;20054;-54
2022/09/27 07:11:06;;;;;;;6.85;1.40;;;;;;;9.03;100.00;99609.84;5072804;28;20408;-51
2022/09/27 07:13:39;;;;;;;4.18;1.25;;;;;;;9.27;100.00;99619.34;5075040;28;20487;-53
2022/09/27 07:16:07;;;;;;;;;;;;;;;9.44;100.00;99612.78;5076014;28;20047;-52
2022/09/27 07:18:35;;;;;;;5.35;1.85;;;;;;;9.53;100.00;99622.53;5075582;28;19966;-54
2022/09/27 07:21:03;;;;;;;5.03;1.80;;;;;;;9.55;100.00;99619.78;5108256;28;20049;-53
2022/09/27 07:23:31;;;;;;;6.97;1.40;;;;;;;9.54;100.00;99620.75;5075692;28;20072;-51
2022/09/27 07:26:03;;;;;;;6.88;1.40;;;;;;;9.59;100.00;99626.47;5073731;28;20441;-51
2022/09/27 07:28:32;;;;;;;4.22;1.40;;;;;;;9.58;100.00;99617.72;5072843;28;20110;-52
2022/09/27 07:31:03;;;;;;;3.78;1.25;;;;;;;9.58;100.00;99620.34;5075353;28;20503;-49
2022/09/27 07:33:32;;;;;;;4.63;1.25;;;;;;;9.58;100.00;99625.59;5075480;28;20425;-51
2022/09/27 07:36:06;;;;;;;4.70;1.15;;;;;;;9.66;100.00;99629.44;5075409;28;20087;-50
2022/09/27 07:38:34;;;;;;;4.03;1.38;;;;;;;9.64;100.00;99632.19;5074137;28;20466;-52
2022/09/27 07:41:06;;;;;;;7.50;1.70;;;;;;;9.59;100.00;99629.91;5072572;28;20122;-53
2022/09/27 07:43:35;;;;;;;5.03;1.60;;;;;;;9.63;100.00;99633.94;5072950;28;20040;-53
2022/09/27 07:46:04;;;;;;;5.25;1.40;;;;;;;9.69;100.00;99634.44;5071469;28;20488;-52
2022/09/27 07:48:32;;;;;;;6.22;1.65;;;;;;;9.71;100.00;99633.34;5072285;28;20047;-53
2022/09/27 07:51:00;;;;;;;5.95;1.77;;;;;;;9.76;100.00;99640.84;5073077;28;20051;-53
2022/09/27 07:53:28;;;;;;;3.22;1.30;;;;;;;9.81;100.00;99643.94;5073545;28;20056;-53
2022/09/27 07:55:57;;;;;;;3.80;1.45;;;;;;;9.85;100.00;99644.53;5074767;28;20036;-54
2022/09/27 07:58:25;;;;;;;7.63;1.50;;;;;;;9.93;100.00;99642.13;5074777;28;20075;-55
2022/09/27 08:00:55;;;;;;;4.03;1.30;;;;;;;10.07;100.00;99649.69;5074749;28;20495;-53
2022/09/27 08:03:23;;;;;;;4.70;1.20;;;;;;;10.05;100.00;99648.13;5074441;28;20123;-55
2022/09/27 08:05:51;;;;;;;4.82;1.40;;;;;;;10.12;100.00;99654.56;5074531;28;20059;-53
2022/09/27 08:08:20;;;;;;;4.55;1.52;;;;;;;10.20;100.00;99652.16;5074042;28;20048;-53
2022/09/27 08:10:48;;;;;;;3.28;1.55;;;;;;;10.25;100.00;99659.63;5072144;28;20040;-54
2022/09/27 08:13:18;;;;;;;6.90;1.60;;;;;;;10.28;100.00;99660.22;5072467;28;20562;-51
2022/09/27 08:15:49;;;;;;;5.22;1.30;;;;;;;10.22;100.00;99657.28;5074411;28;20396;-55
2022/09/27 08:18:20;;;;;;;4.40;1.30;;;;;;;10.27;100.00;99657.72;5074854;28;20048;-53
2022/09/27 08:20:49;;;;;;;3.55;1.13;;;;;;;10.41;100.00;99664.50;5074518;28;20119;-54
2022/09/27 08:23:17;;;;;;;2.70;1.08;;;;;;;10.48;100.00;99665.66;5073952;28;20048;-51
2022/09/27 08:25:52;;;;;;;4.05;0.90;;;;;;;10.49;100.00;99675.22;5071858;28;20514;-52
2022/09/27 08:28:21;;;;;;;6.00;1.00;;;;;;;10.55;100.00;99669.44;5072781;28;20431;-54
2022/09/27 08:30:50;;;;;;;3.90;1.20;;;;;;;10.67;100.00;99674.63;5074315;28;20045;-53
2022/09/27 08:33:20;;;;;;;5.13;1.30;;;;;;;10.67;100.00;99669.38;5073997;28;20075;-54
2022/09/27 08:35:48;;;;;;;6.05;1.20;;;;;;;10.70;100.00;99677.00;5072091;28;20125;-55
2022/09/27 08:38:16;;;;;;;7.75;1.40;;;;;;;10.79;100.00;99676.22;5072682;28;20419;-55
2022/09/27 08:40:53;;;;;;;3.90;1.40;;;;;;;10.90;100.00;99686.66;5074105;28;20728;-53
2022/09/27 08:43:35;;;;;;;4.15;1.35;;;;;;;10.89;100.00;99681.53;5074119;28;20135;-53
2022/09/27 08:46:14;;;;;;;3.78;1.20;;;;;;;10.86;100.00;99682.63;5073807;28;20430;-55
2022/09/27 08:48:46;;;;;;;4.85;1.27;;;;;;;10.85;100.00;99674.88;5074046;28;20059;-53
2022/09/27 08:51:15;;;;;;;4.25;1.38;;;;;;;10.88;100.00;99675.44;5073754;28;20507;-54
2022/09/27 08:53:49;;;;;;;2.78;1.20;;;;;;;10.87;100.00;99686.09;5073804;28;20077;-54
2022/09/27 08:56:20;;;;;;;5.72;1.65;;;;;;;10.87;100.00;99681.66;5073523;28;20055;-54
2022/09/27 08:58:52;;;;;;;4.82;1.92;;;;;;;10.84;100.00;99684.56;5073804;28;20510;-54
2022/09/27 09:01:21;;;;;;;3.50;2.10;;;;;;;10.83;100.00;99681.09;5073520;28;20149;-53
2022/09/27 09:04:03;;;;;;;4.22;1.90;;;;;;;10.83;100.00;99682.91;5073680;28;20495;-54
2022/09/27 09:06:39;;;;;;;4.20;2.10;;;;;;;11.00;100.00;99678.81;5073087;28;20087;-53
2022/09/27 09:09:22;;;;;;;6.57;2.40;;;;;;;11.05;100.00;99681.91;5072816;28;20453;-53
2022/09/27 09:15:08;;;;;;;4.43;2.42;;;;;;;11.16;100.00;99683.59;5071269;28;20040;-52
2022/09/27 09:17:51;;;;;;;5.57;2.15;;;;;;;11.14;100.00;99688.19;5068012;28;20052;-54
2022/09/27 09:20:26;;;;;;;;;;;;;;;11.13;100.00;99681.25;5071229;28;20048;-54
2022/09/27 09:23:18;;;;;;;5.03;2.30;;;;;;;11.25;100.00;99682.81;5070931;28;19924;-52
2022/09/27 09:25:53;;;;;;;5.05;2.00;;;;;;;11.33;100.00;99690.88;5070432;28;20056;-53
2022/09/27 09:28:38;;;;;;;3.13;1.52;;;;;;;11.37;100.00;99677.44;5104063;28;20052;-55
2022/09/27 09:31:13;;;;;;;2.20;1.13;;;;;;;11.35;100.00;99682.03;5072944;28;20124;-54
2022/09/27 09:33:46;;;;;;;3.17;1.10;;;;;;;11.30;100.00;99685.91;5072730;28;20128;-55
2022/09/27 09:36:27;;;;;;;2.88;1.20;;;;;;;11.42;100.00;99685.78;5073193;28;20045;-53
2022/09/27 09:39:00;;;;;;;4.50;1.00;;;;;;;11.45;100.00;99682.88;5072871;28;20474;-53
2022/09/27 09:41:32;;;;;;;3.85;1.20;;;;;;;11.32;100.00;99686.56;5072373;28;20135;-53
2022/09/27 09:44:07;;;;;;;2.22;1.30;;;;;;;11.48;100.00;99690.53;5072916;28;20395;-53
2022/09/27 09:46:39;;;;;;;3.28;1.77;;;;;;;11.48;100.00;99680.00;5072856;28;20067;-53
2022/09/27 09:49:18;;;;;;;5.25;2.22;;;;;;;11.34;100.00;99683.81;5072927;28;20068;-57
2022/09/27 09:51:51;;;;;;;6.15;1.95;;;;;;;11.37;100.00;99683.56;5072693;28;20505;-57
2022/09/27 09:54:25;;;;;;;4.82;2.00;;;;;;;11.28;100.00;99679.09;5072901;28;20053;-55
2022/09/27 09:57:02;;;;;;;6.88;2.50;;;;;;;11.13;100.00;99676.81;5072231;28;20114;-52
2022/09/27 09:59:35;;;;;;;6.57;2.40;;;;;;;11.12;100.00;99680.41;5070110;28;20557;-53
2022/09/27 10:02:21;;;;;;;5.22;2.30;;;;;;;11.03;100.00;99678.56;5067225;28;20048;-53
2022/09/27 10:04:50;;;;;;;5.53;2.25;;;;;;;11.06;100.00;99669.59;5072107;28;20094;-50
2022/09/27 10:07:23;;;;;;;5.75;1.85;;;;;;;11.04;100.00;99680.22;5072679;28;20044;-52
2022/09/27 10:09:53;;;;;;;4.25;1.85;;;;;;;11.14;100.00;99680.28;5072725;28;20050;-49
2022/09/27 10:12:22;;;;;;;5.57;1.60;;;;;;;11.15;100.00;99671.41;5072223;28;20052;-51
2022/09/27 10:14:51;;;;;;;3.50;1.48;;;;;;;11.27;100.00;99678.25;5071168;28;20045;-54
2022/09/27 10:17:23;;;;;;;6.75;1.50;;;;;;;11.27;100.00;99680.06;5067482;28;20040;-54
2022/09/27 10:19:53;;;;;;;5.22;1.67;;;;;;;11.28;100.00;99679.09;5071956;28;20106;-54
2022/09/27 10:22:29;;;;;;;3.78;1.02;;;;;;;11.31;100.00;99684.09;5069779;28;20048;-54
2022/09/27 10:25:00;;;;;;;5.13;1.05;;;;;;;11.33;100.00;99690.06;5071272;28;20044;-54
2022/09/27 10:27:39;;;;;;;4.68;1.10;;;;;;;11.13;100.00;99692.59;5069988;28;20056;-56
2022/09/27 10:30:22;;;;;;;4.45;0.90;;;;;;;11.07;100.00;99692.28;5070360;28;20048;-54
2022/09/27 10:32:52;;;;;;;4.72;1.00;;;;;;;11.07;100.00;99692.28;5071211;28;20407;-53
2022/09/27 10:35:35;;;;;;;3.65;0.80;;;;;;;11.09;100.00;99696.44;5069647;28;20438;-53
2022/09/27 10:38:21;;;;;;;;;;;;;;;11.02;100.00;99697.13;5104196;28;20052;-54
2022/09/27 10:40:50;;;;;;;5.32;0.82;;;;;;;11.02;100.00;99684.78;5069910;28;19920;-54
2022/09/27 10:43:30;;;;;;;3.78;0.90;;;;;;;11.01;100.00;99684.94;5069213;28;20525;-54
2022/09/27 10:46:10;;;;;;;3.50;1.10;;;;;;;10.98;100.00;99683.38;5068403;28;20052;-53
2022/09/27 10:48:40;;;;;;;2.88;0.90;;;;;;;11.11;100.00;99688.41;5070806;28;20491;-51
2022/09/27 10:51:24;;;;;;;2.28;0.60;;;;;;;11.08;100.00;99694.78;5071554;28;20098;-51
2022/09/27 10:53:59;;;;;;;3.20;0.80;;;;;;;11.08;100.00;99699.22;5071685;28;20492;-53
2022/09/27 10:56:29;;;;;;;4.07;0.68;;;;;;;11.17;100.00;99698.44;5071956;28;20036;-55
2022/09/27 10:59:01;;;;;;;;;;;;;;;11.20;100.00;99703.44;5072248;28;20532;-51
2022/09/27 11:01:40;;;;;;;4.05;0.88;;;;;;;11.29;100.00;99697.38;5070641;28;19920;-54
2022/09/27 11:04:20;;;;;;;2.40;0.80;;;;;;;11.37;100.00;99696.72;5070847;28;20048;-54
2022/09/27 11:06:48;;;;;;;3.22;0.85;;;;;;;11.44;100.00;99697.03;5069826;28;20041;-52
2022/09/27 11:09:23;;;;;;;3.63;0.70;;;;;;;11.59;100.00;99697.47;5071234;28;20044;-54
2022/09/27 11:11:51;;;;;;;3.88;1.05;;;;;;;11.64;100.00;99693.47;5071808;28;20040;-54
2022/09/27 11:14:22;;;;;;;2.35;1.00;;;;;;;11.57;100.00;99694.16;5071101;28;20052;-55
2022/09/27 11:17:08;;;;;;;3.10;0.80;;;;;;;11.62;100.00;99698.03;5067491;28;20057;-51
2022/09/27 11:20:12;;;;;;;1.52;0.60;;;;;;;11.64;100.00;99696.13;5071662;28;20049;-55
2022/09/27 11:23:12;;;;;;;2.75;0.70;;;;;;;11.63;100.00;99699.72;5070126;28;20577;-54
2022/09/27 11:25:51;;;;;;;3.80;0.80;;;;;;;11.58;100.00;99704.53;5068585;28;20450;-55
2022/09/27 11:28:30;;;;;;;5.03;1.00;;;;;;;11.61;100.00;99690.28;5071716;28;20049;-52
2022/09/27 11:31:07;;;;;;;3.58;0.77;;;;;;;11.65;100.00;99704.84;5074701;28;20094;-52
2022/09/27 11:33:53;;;;;;;4.72;0.90;;;;;;;11.75;100.00;99702.22;5073934;28;20061;-53
2022/09/27 11:36:34;;;;;;;1.85;0.60;;;;;;;11.67;100.00;99700.28;5075378;28;20098;-53
2022/09/27 11:39:09;;;;;;;4.00;0.80;;;;;;;11.77;100.00;99701.13;5074060;28;20052;-53
2022/09/27 11:41:50;;;;;;;2.50;0.70;;;;;;;11.97;100.00;99702.03;5075242;28;20036;-53
2022/09/27 11:44:37;;;;;;;2.85;0.90;;;;;;;12.21;100.00;99702.59;5074960;28;20036;-53
2022/09/27 11:47:14;;;;;;;2.95;0.80;;;;;;;12.40;100.00;99699.94;5074725;28;20510;-52
2022/09/27 11:50:13;;;;;;;1.77;0.68;;;;;;;12.61;100.00;99704.22;5072857;28;20037;-54
2022/09/27 11:52:56;;;;;;;3.42;0.93;;;;;;;12.63;100.00;99697.84;5072449;28;20457;-54
2022/09/27 11:55:31;;;;;;;;;;;;;;;12.66;100.00;99710.75;5073261;28;20094;-55
2022/09/27 11:58:11;;;;;;;3.75;0.52;;;;;;;12.48;100.00;99699.25;5072383;28;19924;-54
2022/09/27 12:00:52;;;;;;;1.30;0.50;;;;;;;12.64;100.00;99701.34;5072495;28;20075;-55
2022/09/27 12:03:46;;;;;;;3.90;0.70;;;;;;;12.56;100.00;99707.31;5074756;28;20060;-52
2022/09/27 12:06:20;;;;;;;2.90;0.95;;;;;;;12.52;100.00;99701.47;5074913;28;20045;-55
2022/09/27 12:09:03;;;;;;;1.58;0.55;;;;;;;12.59;100.00;99696.47;5074768;28;20044;-54